createdAt,value
2022-08-10T00:01:41.260Z,23.90
2022-08-10T00:04:09.266Z,23.90
2022-08-10T00:06:47.197Z,23.80
2022-08-10T00:09:15.092Z,23.80
2022-08-10T00:11:44.370Z,23.80
2022-08-10T00:14:12.330Z,23.70
2022-08-10T00:16:40.298Z,23.70
2022-08-10T00:19:08.237Z,23.70
2022-08-10T00:21:37.821Z,23.70
2022-08-10T00:24:06.094Z,23.60
2022-08-10T00:27:52.935Z,23.60
2022-08-10T00:29:24.612Z,23.60
2022-08-10T00:31:57.679Z,23.50
2022-08-10T00:34:26.571Z,23.50
2022-08-10T00:36:54.679Z,23.40
2022-08-10T00:39:23.727Z,23.30
2022-08-10T00:42:02.315Z,23.30
2022-08-10T00:44:37.945Z,23.30
2022-08-10T00:47:06.675Z,23.20
2022-08-10T00:49:34.963Z,23.20
2022-08-10T00:52:04.610Z,23.20
2022-08-10T00:54:33.423Z,23.10
2022-08-10T00:57:17.978Z,23.00
2022-08-10T00:59:58.067Z,23.00
2022-08-10T01:02:28.682Z,23.00
2022-08-10T01:05:00.993Z,22.90
2022-08-10T01:07:49.160Z,22.90
2022-08-10T01:10:26.823Z,22.90
2022-08-10T01:13:02.222Z,22.80
2022-08-10T01:15:38.691Z,22.80
2022-08-10T01:18:10.625Z,22.70
2022-08-10T01:20:46.551Z,22.70
2022-08-10T01:23:32.642Z,22.70
2022-08-10T01:26:30.506Z,22.60
2022-08-10T01:29:28.472Z,22.60
2022-08-10T01:32:03.245Z,22.50
2022-08-10T01:34:34.791Z,22.40
2022-08-10T01:37:08.135Z,22.40
2022-08-10T01:39:41.460Z,22.30
2022-08-10T01:42:13.279Z,22.30
2022-08-10T01:44:46.216Z,22.30
2022-08-10T01:47:36.991Z,22.20
2022-08-10T01:50:10.381Z,22.20
2022-08-10T01:52:43.023Z,22.10
2022-08-10T01:55:13.454Z,22.10
2022-08-10T01:57:43.178Z,22.00
2022-08-10T02:00:12.794Z,22.00
2022-08-10T02:03:30.854Z,21.90
2022-08-10T02:06:01.704Z,21.90
2022-08-10T02:08:31.687Z,21.80
2022-08-10T02:11:01.956Z,21.80
2022-08-10T02:13:31.056Z,21.80
2022-08-10T02:16:02.663Z,21.70
2022-08-10T02:18:32.248Z,21.60
2022-08-10T02:21:05.472Z,21.50
2022-08-10T02:23:38.071Z,21.50
2022-08-10T02:26:08.248Z,21.40
2022-08-10T02:28:38.218Z,21.40
2022-08-10T02:31:11.715Z,21.40
2022-08-10T02:33:57.386Z,21.30
2022-08-10T02:36:33.802Z,21.30
2022-08-10T02:39:04.651Z,21.30
2022-08-10T02:45:13.532Z,21.30
2022-08-10T02:45:19.721Z,21.20
2022-08-10T02:47:51.448Z,21.20
2022-08-10T02:50:27.496Z,21.20
2022-08-10T02:53:02.662Z,21.20
2022-08-10T02:55:35.755Z,21.10
2022-08-10T02:58:17.196Z,21.10
2022-08-10T03:00:50.957Z,21.10
2022-08-10T03:03:23.555Z,21.10
2022-08-10T03:06:04.097Z,21.00
2022-08-10T03:08:37.284Z,21.00
2022-08-10T03:11:07.594Z,20.90
2022-08-10T03:13:36.690Z,20.90
2022-08-10T03:16:06.270Z,20.70
2022-08-10T03:18:35.362Z,20.60
2022-08-10T03:21:06.011Z,20.60
2022-08-10T03:23:39.829Z,20.50
2022-08-10T03:26:08.977Z,20.50
2022-08-10T03:28:37.659Z,20.40
2022-08-10T03:31:05.921Z,20.40
2022-08-10T03:33:37.831Z,20.40
2022-08-10T03:36:41.414Z,20.40
2022-08-10T03:38:56.528Z,20.30
2022-08-10T03:41:35.353Z,20.20
2022-08-10T03:44:06.071Z,20.20
2022-08-10T03:46:36.572Z,20.20
2022-08-10T03:49:06.193Z,20.20
2022-08-10T03:51:35.605Z,20.20
2022-08-10T03:54:07.469Z,20.20
2022-08-10T03:56:37.542Z,20.20
2022-08-10T03:59:07.229Z,20.20
2022-08-10T04:02:45.979Z,20.20
2022-08-10T04:04:24.986Z,20.10
2022-08-10T04:06:54.738Z,20.00
2022-08-10T04:09:43.005Z,19.90
2022-08-10T04:12:15.270Z,19.80
2022-08-10T04:14:50.605Z,19.70
2022-08-10T04:18:03.442Z,19.70
2022-08-10T04:20:17.348Z,19.70
2022-08-10T04:22:47.728Z,19.70
2022-08-10T04:25:18.043Z,19.70
2022-08-10T04:27:46.842Z,19.70
2022-08-10T04:30:15.314Z,19.70
2022-08-10T04:32:46.677Z,19.80
2022-08-10T04:35:16.666Z,19.80
2022-08-10T04:37:47.090Z,19.80
2022-08-10T04:40:25.179Z,19.80
2022-08-10T04:43:02.194Z,19.80
2022-08-10T04:45:49.200Z,19.80
2022-08-10T04:48:41.387Z,19.80
2022-08-10T04:51:11.162Z,19.90
2022-08-10T04:54:02.816Z,19.90
2022-08-10T04:56:36.434Z,19.90
2022-08-10T04:59:06.054Z,20.00
2022-08-10T05:02:12.492Z,20.10
2022-08-10T05:04:38.580Z,20.20
2022-08-10T05:07:15.915Z,20.40
2022-08-10T05:10:01.735Z,20.50
2022-08-10T05:12:35.588Z,20.70
2022-08-10T05:15:06.326Z,20.90
2022-08-10T05:17:34.776Z,21.40
2022-08-10T05:20:06.873Z,22.20
2022-08-10T05:22:40.597Z,23.20
2022-08-10T05:25:11.328Z,24.10
2022-08-10T05:27:41.245Z,25.10
2022-08-10T05:30:11.590Z,25.90
2022-08-10T05:32:58.329Z,26.60
2022-08-10T05:35:55.187Z,27.20
2022-08-10T05:38:18.498Z,27.90
2022-08-10T05:40:48.042Z,28.60
2022-08-10T05:43:23.977Z,29.20
2022-08-10T05:46:18.185Z,29.80
2022-08-10T05:48:58.046Z,30.40
2022-08-10T05:51:29.764Z,31.10
2022-08-10T05:54:02.075Z,31.80
2022-08-10T05:56:53.530Z,32.40
2022-08-10T06:00:35.830Z,33.00
2022-08-10T06:02:33.115Z,33.70
2022-08-10T06:07:38.374Z,34.90
2022-08-10T06:10:10.381Z,35.00
2022-08-10T06:12:54.149Z,33.90
2022-08-10T06:15:51.968Z,32.20
2022-08-10T06:18:14.951Z,30.30
2022-08-10T06:20:43.559Z,28.80
2022-08-10T06:23:13.289Z,27.70
2022-08-10T06:26:12.167Z,26.80
2022-08-10T06:28:33.474Z,26.10
2022-08-10T06:31:05.196Z,25.50
2022-08-10T06:33:35.460Z,25.10
2022-08-10T06:36:05.242Z,24.70
2022-08-10T06:38:34.525Z,24.50
2022-08-10T06:41:08.359Z,24.20
2022-08-10T06:43:37.480Z,24.00
2022-08-10T06:46:12.066Z,23.90
2022-08-10T06:48:47.552Z,23.70
2022-08-10T06:51:21.441Z,23.60
2022-08-10T06:53:55.257Z,23.60
2022-08-10T06:56:35.791Z,23.60
2022-08-10T06:59:13.290Z,23.60
2022-08-10T07:01:55.237Z,23.50
2022-08-10T07:04:31.933Z,23.50
2022-08-10T07:07:04.258Z,23.50
2022-08-10T07:09:33.738Z,23.50
2022-08-10T07:12:07.842Z,23.50
2022-08-10T07:14:39.648Z,23.50
2022-08-10T07:17:15.948Z,23.50
2022-08-10T07:19:49.958Z,23.60
2022-08-10T07:23:01.205Z,23.60
2022-08-10T07:25:13.807Z,23.60
2022-08-10T07:28:00.883Z,23.70
2022-08-10T07:30:31.140Z,23.70
2022-08-10T07:33:02.418Z,23.70
2022-08-10T07:35:41.580Z,23.80
2022-08-10T07:38:14.282Z,23.80
2022-08-10T07:40:44.854Z,23.90
2022-08-10T07:43:14.582Z,24.00
2022-08-10T07:45:42.604Z,24.10
2022-08-10T07:48:16.543Z,24.20
2022-08-10T07:50:46.285Z,24.20
2022-08-10T07:53:21.100Z,24.30
2022-08-10T07:56:03.407Z,24.40
2022-08-10T07:58:46.339Z,24.50
2022-08-10T08:01:24.097Z,24.60
2022-08-10T08:04:05.388Z,24.60
2022-08-10T08:06:40.651Z,24.70
2022-08-10T08:09:08.956Z,24.80
2022-08-10T08:11:37.642Z,24.90
2022-08-10T08:14:06.857Z,24.90
2022-08-10T08:16:36.420Z,25.00
2022-08-10T08:24:10.072Z,25.10
2022-08-10T08:24:44.348Z,25.20
2022-08-10T08:27:15.185Z,25.30
2022-08-10T08:29:45.759Z,25.30
2022-08-10T08:32:16.962Z,25.40
2022-08-10T08:34:47.189Z,25.40
2022-08-10T08:38:26.496Z,25.50
2022-08-10T08:40:11.370Z,25.50
2022-08-10T08:42:52.079Z,25.60
2022-08-10T08:45:25.890Z,25.60
2022-08-10T08:48:14.934Z,25.70
2022-08-10T08:51:01.682Z,25.80
2022-08-10T08:54:03.372Z,25.90
2022-08-10T08:56:42.683Z,25.90
2022-08-10T08:59:29.867Z,25.90
2022-08-10T09:02:16.215Z,26.00
2022-08-10T09:04:57.850Z,26.10
2022-08-10T09:08:00.371Z,26.10
2022-08-10T09:10:42.375Z,26.20
2022-08-10T09:13:17.746Z,26.20
2022-08-10T09:15:51.659Z,26.20
2022-08-10T09:18:25.007Z,26.30
2022-08-10T09:21:05.106Z,26.40
2022-08-10T09:24:05.107Z,26.40
2022-08-10T09:26:43.423Z,26.50
2022-08-10T09:29:14.455Z,26.60
2022-08-10T09:32:54.977Z,26.60
2022-08-10T09:36:19.624Z,26.70
2022-08-10T09:38:02.817Z,26.70
2022-08-10T09:41:01.056Z,26.70
2022-08-10T09:43:37.296Z,26.80
2022-08-10T09:46:12.773Z,26.80
2022-08-10T09:48:48.337Z,26.80
2022-08-10T09:51:47.381Z,26.80
2022-08-10T09:54:40.376Z,26.80
2022-08-10T09:57:44.856Z,26.80
2022-08-10T10:00:10.852Z,26.90
2022-08-10T10:02:52.449Z,26.90
2022-08-10T10:05:33.609Z,26.90
2022-08-10T10:08:10.491Z,27.00
2022-08-10T10:10:47.981Z,27.10
2022-08-10T10:13:50.046Z,27.20
2022-08-10T10:16:44.943Z,27.30
2022-08-10T10:19:40.333Z,27.40
2022-08-10T10:22:26.307Z,27.40
2022-08-10T10:25:00.595Z,27.40
2022-08-10T10:27:40.585Z,27.40
2022-08-10T10:30:12.608Z,27.50
2022-08-10T10:32:48.618Z,27.60
2022-08-10T10:35:24.387Z,27.60
2022-08-10T10:38:01.713Z,27.70
2022-08-10T10:40:39.629Z,27.80
2022-08-10T10:43:16.625Z,27.80
2022-08-10T10:45:56.342Z,27.80
2022-08-10T10:48:31.716Z,27.90
2022-08-10T10:51:10.939Z,27.90
2022-08-10T10:53:47.356Z,27.90
2022-08-10T10:56:24.529Z,27.90
2022-08-10T10:59:33.258Z,28.00
2022-08-10T11:02:05.646Z,28.00
2022-08-10T11:04:41.421Z,28.10
2022-08-10T11:07:23.891Z,28.10
2022-08-10T11:10:31.579Z,28.10
2022-08-10T11:13:02.265Z,28.10
2022-08-10T11:15:58.945Z,28.10
2022-08-10T11:18:37.487Z,28.10
2022-08-10T11:21:14.739Z,28.10
2022-08-10T11:24:48.979Z,28.10
2022-08-10T11:26:47.630Z,28.10
2022-08-10T11:29:20.637Z,28.10
2022-08-10T11:31:54.877Z,28.10
2022-08-10T11:34:46.792Z,28.20
2022-08-10T11:37:21.868Z,28.10
2022-08-10T11:39:55.534Z,28.10
2022-08-10T11:42:35.775Z,28.00
2022-08-10T11:45:10.009Z,27.90
2022-08-10T11:47:45.878Z,28.00
2022-08-10T11:50:22.389Z,28.00
2022-08-10T11:52:57.572Z,28.00
2022-08-10T11:55:29.599Z,28.10
2022-08-10T11:58:01.456Z,28.10
2022-08-10T12:00:35.557Z,28.10
2022-08-10T12:03:06.896Z,28.20
2022-08-10T12:05:52.586Z,28.30
2022-08-10T12:10:07.707Z,28.30
2022-08-10T12:11:44.484Z,28.40
2022-08-10T12:14:21.765Z,28.50
2022-08-10T12:16:53.420Z,28.50
2022-08-10T12:19:25.215Z,28.50
2022-08-10T12:22:05.913Z,28.60
2022-08-10T12:24:39.146Z,28.60
2022-08-10T12:27:13.132Z,28.60
2022-08-10T12:29:47.069Z,28.70
2022-08-10T12:32:25.486Z,28.80
2022-08-10T12:34:57.719Z,28.80
2022-08-10T12:37:34.697Z,28.80
2022-08-10T12:40:35.193Z,28.90
2022-08-10T12:43:13.430Z,28.90
2022-08-10T12:46:05.814Z,28.90
2022-08-10T12:48:37.612Z,28.90
2022-08-10T12:51:12.040Z,28.90
2022-08-10T12:53:51.078Z,28.90
2022-08-10T12:56:27.487Z,28.90
2022-08-10T12:59:01.113Z,28.90
2022-08-10T13:02:07.985Z,29.00
2022-08-10T13:04:28.124Z,29.00
2022-08-10T13:06:58.864Z,29.00
2022-08-10T13:09:29.047Z,29.10
2022-08-10T13:12:35.399Z,29.10
2022-08-10T13:14:55.302Z,29.00
2022-08-10T13:17:32.763Z,29.00
2022-08-10T13:20:15.961Z,28.90
2022-08-10T13:22:45.233Z,28.80
2022-08-10T13:25:19.149Z,28.80
2022-08-10T13:27:59.789Z,28.80
2022-08-10T13:30:33.510Z,28.90
2022-08-10T13:33:08.292Z,28.90
2022-08-10T13:35:37.576Z,28.90
2022-08-10T13:38:08.145Z,29.00
2022-08-10T13:40:39.210Z,29.00
2022-08-10T13:43:09.862Z,29.00
2022-08-10T13:45:47.720Z,29.00
2022-08-10T13:48:20.478Z,29.10
2022-08-10T13:50:50.584Z,29.10
2022-08-10T13:53:19.821Z,29.10
2022-08-10T13:55:55.083Z,29.20
2022-08-10T13:58:27.399Z,29.30
2022-08-10T14:00:57.742Z,29.30
2022-08-10T14:11:50.443Z,29.40
2022-08-10T14:14:20.747Z,29.30
2022-08-10T14:16:51.056Z,29.40
2022-08-10T14:19:24.981Z,29.40
2022-08-10T14:21:53.402Z,29.50
2022-08-10T14:24:23.912Z,29.50
2022-08-10T14:27:00.582Z,29.60
2022-08-10T14:29:29.828Z,29.60
2022-08-10T14:32:02.310Z,29.50
2022-08-10T14:36:14.827Z,29.60
2022-08-10T14:37:34.988Z,29.60
2022-08-10T14:40:09.026Z,29.60
2022-08-10T14:42:45.606Z,29.60
2022-08-10T14:45:21.241Z,29.60
2022-08-10T14:47:53.536Z,29.60
2022-08-10T14:50:32.799Z,29.60
2022-08-10T14:53:09.190Z,29.60
2022-08-10T14:55:59.192Z,29.70
2022-08-10T14:58:32.185Z,29.70
2022-08-10T15:01:02.011Z,29.60
2022-08-10T15:04:00.877Z,29.70
2022-08-10T15:06:30.644Z,29.70
2022-08-10T15:09:12.352Z,29.70
2022-08-10T15:12:14.886Z,29.70
2022-08-10T15:14:42.698Z,29.70
2022-08-10T15:17:14.030Z,29.70
2022-08-10T15:20:02.097Z,29.70
2022-08-10T15:22:38.441Z,29.80
2022-08-10T15:25:18.928Z,29.80
2022-08-10T15:27:57.518Z,29.80
2022-08-10T15:30:31.537Z,29.80
2022-08-10T15:34:02.653Z,29.80
2022-08-10T15:36:29.896Z,29.80
2022-08-10T15:39:01.041Z,29.80
2022-08-10T15:41:57.741Z,29.80
2022-08-10T15:44:37.616Z,29.80
2022-08-10T15:47:10.572Z,29.80
2022-08-10T15:49:45.539Z,29.80
2022-08-10T15:52:39.434Z,29.80
2022-08-10T15:55:41.234Z,29.80
2022-08-10T15:58:06.883Z,29.80
2022-08-10T16:00:39.844Z,29.70
2022-08-10T16:03:15.736Z,29.80
2022-08-10T16:06:02.073Z,29.80
2022-08-10T16:08:56.018Z,29.90
2022-08-10T16:11:37.360Z,29.90
2022-08-10T16:14:14.225Z,29.90
2022-08-10T16:16:45.033Z,29.90
2022-08-10T16:19:22.290Z,29.90
2022-08-10T16:22:01.262Z,29.90
2022-08-10T16:24:33.636Z,29.90
2022-08-10T16:27:06.470Z,29.80
2022-08-10T16:29:56.312Z,29.90
2022-08-10T16:32:26.395Z,29.90
2022-08-10T16:34:57.673Z,29.90
2022-08-10T16:37:58.638Z,29.90
2022-08-10T16:40:24.094Z,29.90
2022-08-10T16:42:52.979Z,30.00
2022-08-10T16:45:24.846Z,29.90
2022-08-10T16:47:54.641Z,29.90
2022-08-10T16:50:28.362Z,29.90
2022-08-10T16:53:01.820Z,29.90
2022-08-10T16:55:48.566Z,29.90
2022-08-10T16:58:21.668Z,29.90
2022-08-10T17:00:51.060Z,29.90
2022-08-10T17:04:06.517Z,29.80
2022-08-10T17:06:21.817Z,29.80
2022-08-10T17:08:53.874Z,29.80
2022-08-10T17:11:24.216Z,29.80
2022-08-10T17:13:56.505Z,29.70
2022-08-10T17:16:26.892Z,29.70
2022-08-10T17:18:57.760Z,29.60
2022-08-10T17:21:31.190Z,29.60
2022-08-10T17:24:03.649Z,29.60
2022-08-10T17:26:37.178Z,29.50
2022-08-10T17:29:53.165Z,29.50
2022-08-10T17:32:06.384Z,29.50
2022-08-10T17:34:38.798Z,29.50
2022-08-10T17:37:16.310Z,29.50
2022-08-10T17:39:48.884Z,29.40
2022-08-10T17:42:21.888Z,29.40
2022-08-10T17:44:52.040Z,29.30
2022-08-10T17:47:20.775Z,29.30
2022-08-10T17:49:50.787Z,29.20
2022-08-10T17:52:23.169Z,29.20
2022-08-10T17:54:56.038Z,29.20
2022-08-10T17:57:26.600Z,29.10
2022-08-10T17:59:55.605Z,29.00
2022-08-10T18:02:26.202Z,29.00
2022-08-10T18:04:58.454Z,29.00
2022-08-10T18:07:33.729Z,28.90
2022-08-10T18:10:03.215Z,28.90
2022-08-10T18:12:38.790Z,28.90
2022-08-10T18:15:13.251Z,28.80
2022-08-10T18:17:45.738Z,28.80
2022-08-10T18:20:15.360Z,28.70
2022-08-10T18:22:51.350Z,28.70
2022-08-10T18:25:23.006Z,28.60
2022-08-10T18:28:01.466Z,28.50
2022-08-10T18:30:36.325Z,28.50
2022-08-10T18:33:09.521Z,28.40
2022-08-10T18:35:38.574Z,28.30
2022-08-10T18:38:09.335Z,28.30
2022-08-10T18:40:39.478Z,28.20
2022-08-10T18:44:06.117Z,28.10
2022-08-10T18:45:59.654Z,28.10
2022-08-10T18:48:38.099Z,28.00
2022-08-10T18:51:07.500Z,28.00
2022-08-10T18:53:41.141Z,27.90
2022-08-10T18:56:17.055Z,27.90
2022-08-10T18:59:02.754Z,27.80
2022-08-10T19:01:48.348Z,27.80
2022-08-10T19:04:31.913Z,27.70
2022-08-10T19:07:20.272Z,27.60
2022-08-10T19:10:03.757Z,27.60
2022-08-10T19:12:42.362Z,27.50
2022-08-10T19:15:18.985Z,27.40
2022-08-10T19:18:03.362Z,27.40
2022-08-10T19:20:38.849Z,27.40
2022-08-10T19:23:15.437Z,27.30
2022-08-10T19:26:37.872Z,27.30
2022-08-10T19:28:47.292Z,27.20
2022-08-10T19:31:42.045Z,27.10
2022-08-10T19:34:34.885Z,27.10
2022-08-10T19:37:10.989Z,27.00
2022-08-10T19:39:59.784Z,26.90
2022-08-10T19:42:37.833Z,26.80
2022-08-10T19:46:01.246Z,26.60
2022-08-10T19:48:14.467Z,26.40
2022-08-10T19:50:48.243Z,26.20
2022-08-10T19:53:25.817Z,26.00
2022-08-10T19:56:32.711Z,25.90
2022-08-10T19:59:08.791Z,25.80
2022-08-10T20:01:52.993Z,25.70
2022-08-10T20:04:31.910Z,25.60
2022-08-10T20:07:13.339Z,25.50
2022-08-10T20:09:47.225Z,25.30
2022-08-10T20:12:23.917Z,25.30
2022-08-10T20:15:04.067Z,25.20
2022-08-10T20:17:51.107Z,25.10
2022-08-10T20:20:31.204Z,24.90
2022-08-10T20:23:09.371Z,24.80
2022-08-10T20:25:39.547Z,24.70
2022-08-10T20:28:19.459Z,24.60
2022-08-10T20:30:53.201Z,24.50
2022-08-10T20:33:29.151Z,24.50
2022-08-10T20:36:05.349Z,24.50
2022-08-10T20:38:40.166Z,24.60
2022-08-10T20:41:22.919Z,24.50
2022-08-10T20:44:03.595Z,24.50
2022-08-10T20:46:43.575Z,24.50
2022-08-10T20:49:29.103Z,24.40
2022-08-10T20:52:00.529Z,24.40
2022-08-10T20:54:33.356Z,24.30
2022-08-10T20:57:55.192Z,24.30
2022-08-10T21:00:31.579Z,24.30
2022-08-10T21:03:31.493Z,24.20
2022-08-10T21:06:15.345Z,24.10
2022-08-10T21:08:51.833Z,24.00
2022-08-10T21:11:35.278Z,23.90
2022-08-10T21:14:15.398Z,23.90
2022-08-10T21:17:04.613Z,23.80
2022-08-10T21:20:05.957Z,23.70
2022-08-10T21:22:42.108Z,23.50
2022-08-10T21:25:18.308Z,23.40
2022-08-10T21:28:36.544Z,23.30
2022-08-10T21:31:23.026Z,23.30
2022-08-10T21:34:05.908Z,23.30
2022-08-10T21:36:41.386Z,23.20
2022-08-10T21:39:20.100Z,23.20
2022-08-10T21:42:16.854Z,23.20
2022-08-10T21:45:16.589Z,23.20
2022-08-10T21:48:19.116Z,23.10
2022-08-10T21:51:24.646Z,23.00
2022-08-10T21:54:33.115Z,22.90
2022-08-10T21:57:25.662Z,22.70
2022-08-10T22:00:18.401Z,22.70
2022-08-10T22:03:08.841Z,22.70
2022-08-10T22:05:56.127Z,22.70
2022-08-10T22:08:50.329Z,22.70
2022-08-10T22:11:42.935Z,22.70
2022-08-10T22:14:33.662Z,22.60
2022-08-10T22:17:59.431Z,22.60
2022-08-10T22:20:32.956Z,22.60
2022-08-10T22:23:38.980Z,22.50
2022-08-10T22:26:35.570Z,22.50
2022-08-10T22:29:42.261Z,22.40
2022-08-10T22:32:42.092Z,22.40
2022-08-10T22:36:04.483Z,22.30
2022-08-10T22:39:08.920Z,22.20
2022-08-10T22:42:06.605Z,22.20
2022-08-10T22:44:59.164Z,22.20
2022-08-10T22:47:49.012Z,22.30
2022-08-10T22:50:20.689Z,22.30
2022-08-10T22:53:03.747Z,22.30
2022-08-10T22:55:54.526Z,22.20
2022-08-10T22:58:39.876Z,22.20
2022-08-10T23:01:14.189Z,22.20
2022-08-10T23:03:49.844Z,22.10
2022-08-10T23:06:27.296Z,22.10
2022-08-10T23:08:59.719Z,22.10
2022-08-10T23:11:30.625Z,22.10
2022-08-10T23:14:02.158Z,22.10
2022-08-10T23:16:54.458Z,22.10
2022-08-10T23:19:25.487Z,22.20
2022-08-10T23:22:03.681Z,22.20
2022-08-10T23:24:37.487Z,22.20
2022-08-10T23:27:12.685Z,22.20
2022-08-10T23:30:03.641Z,22.20
2022-08-10T23:32:44.520Z,22.20
2022-08-10T23:36:29.969Z,22.10
2022-08-10T23:38:05.759Z,22.00
2022-08-10T23:40:34.581Z,22.10
2022-08-10T23:43:04.087Z,22.10
2022-08-10T23:45:53.805Z,22.00
2022-08-10T23:48:25.902Z,22.00
2022-08-10T23:50:59.546Z,22.00
2022-08-10T23:53:31.209Z,22.00
2022-08-10T23:56:01.812Z,22.00
2022-08-10T23:58:42.089Z,22.00
